sensor_id;sensor_type;location;lat;lon;timestamp;temperature;humidity
3752;DHT22;50827;47.014;7.652;2022-08-14T00:01:46;17.70;99.90
3752;DHT22;50827;47.014;7.652;2022-08-14T00:04:22;17.70;99.90
3752;DHT22;50827;47.014;7.652;2022-08-14T00:07:08;17.70;99.90
3752;DHT22;50827;47.014;7.652;2022-08-14T00:09:36;17.50;99.90
3752;DHT22;50827;47.014;7.652;2022-08-14T00:12:22;17.40;99.90
3752;DHT22;50827;47.014;7.652;2022-08-14T00:15:02;17.40;99.90
3752;DHT22;50827;47.014;7.652;2022-08-14T00:17:30;17.40;99.90
3752;DHT22;50827;47.014;7.652;2022-08-14T00:20:15;17.40;99.90
3752;DHT22;50827;47.014;7.652;2022-08-14T00:22:57;17.30;99.90
3752;DHT22;50827;47.014;7.652;2022-08-14T00:25:27;17.30;99.90
3752;DHT22;50827;47.014;7.652;2022-08-14T00:28:09;17.40;99.90
3752;DHT22;50827;47.014;7.652;2022-08-14T00:30:42;17.30;99.90
3752;DHT22;50827;47.014;7.652;2022-08-14T00:33:09;17.30;99.90
3752;DHT22;50827;47.014;7.652;2022-08-14T00:35:41;17.30;99.90
3752;DHT22;50827;47.014;7.652;2022-08-14T00:38:27;17.30;99.90
3752;DHT22;50827;47.014;7.652;2022-08-14T00:40:58;17.30;99.90
3752;DHT22;50827;47.014;7.652;2022-08-14T00:43:24;17.30;99.90
3752;DHT22;50827;47.014;7.652;2022-08-14T00:46:04;17.30;99.90
3752;DHT22;50827;47.014;7.652;2022-08-14T00:48:35;17.30;99.90
3752;DHT22;50827;47.014;7.652;2022-08-14T00:51:08;17.30;99.90
3752;DHT22;50827;47.014;7.652;2022-08-14T00:53:36;17.30;99.90
3752;DHT22;50827;47.014;7.652;2022-08-14T00:56:09;17.20;99.90
3752;DHT22;50827;47.014;7.652;2022-08-14T00:58:41;17.30;99.90
3752;DHT22;50827;47.014;7.652;2022-08-14T01:01:11;17.20;99.90
3752;DHT22;50827;47.014;7.652;2022-08-14T01:03:42;17.20;99.90
3752;DHT22;50827;47.014;7.652;2022-08-14T01:06:12;17.10;99.90
3752;DHT22;50827;47.014;7.652;2022-08-14T01:08:44;17.00;99.90
3752;DHT22;50827;47.014;7.652;2022-08-14T01:11:24;17.00;99.90
3752;DHT22;50827;47.014;7.652;2022-08-14T01:14:02;17.00;99.90
3752;DHT22;50827;47.014;7.652;2022-08-14T01:16:48;17.00;99.90
3752;DHT22;50827;47.014;7.652;2022-08-14T01:19:19;17.00;99.90
3752;DHT22;50827;47.014;7.652;2022-08-14T01:22:07;17.00;99.90
3752;DHT22;50827;47.014;7.652;2022-08-14T01:24:38;17.00;99.90
3752;DHT22;50827;47.014;7.652;2022-08-14T01:27:17;17.00;99.90
3752;DHT22;50827;47.014;7.652;2022-08-14T01:29:46;16.90;99.90
3752;DHT22;50827;47.014;7.652;2022-08-14T01:32:31;16.90;99.90
3752;DHT22;50827;47.014;7.652;2022-08-14T01:35:04;16.90;99.90
3752;DHT22;50827;47.014;7.652;2022-08-14T01:37:53;16.90;99.90
3752;DHT22;50827;47.014;7.652;2022-08-14T01:40:26;16.90;99.90
3752;DHT22;50827;47.014;7.652;2022-08-14T01:43:13;16.80;99.90
3752;DHT22;50827;47.014;7.652;2022-08-14T01:45:44;16.90;99.90
3752;DHT22;50827;47.014;7.652;2022-08-14T01:48:31;16.90;99.90
3752;DHT22;50827;47.014;7.652;2022-08-14T01:50:59;16.80;99.90
3752;DHT22;50827;47.014;7.652;2022-08-14T01:53:28;16.80;99.90
3752;DHT22;50827;47.014;7.652;2022-08-14T01:56:03;16.80;99.90
3752;DHT22;50827;47.014;7.652;2022-08-14T01:58:37;16.80;99.90
3752;DHT22;50827;47.014;7.652;2022-08-14T02:01:23;16.80;99.90
3752;DHT22;50827;47.014;7.652;2022-08-14T02:03:52;16.70;99.90
3752;DHT22;50827;47.014;7.652;2022-08-14T02:06:23;16.70;99.90
3752;DHT22;50827;47.014;7.652;2022-08-14T02:08:59;16.60;99.90
3752;DHT22;50827;47.014;7.652;2022-08-14T02:11:30;16.50;99.90
3752;DHT22;50827;47.014;7.652;2022-08-14T02:13:58;16.40;99.90
3752;DHT22;50827;47.014;7.652;2022-08-14T02:16:42;16.40;99.90
3752;DHT22;50827;47.014;7.652;2022-08-14T02:19:14;16.30;99.90
3752;DHT22;50827;47.014;7.652;2022-08-14T02:21:46;16.30;99.90
3752;DHT22;50827;47.014;7.652;2022-08-14T02:24:17;16.30;99.90
3752;DHT22;50827;47.014;7.652;2022-08-14T02:27:07;16.30;99.90
3752;DHT22;50827;47.014;7.652;2022-08-14T02:29:54;16.30;99.90
3752;DHT22;50827;47.014;7.652;2022-08-14T02:32:29;16.20;99.90
3752;DHT22;50827;47.014;7.652;2022-08-14T02:35:08;16.00;99.90
3752;DHT22;50827;47.014;7.652;2022-08-14T02:37:39;15.80;99.90
3752;DHT22;50827;47.014;7.652;2022-08-14T02:40:15;15.60;99.90
3752;DHT22;50827;47.014;7.652;2022-08-14T02:42:43;15.50;99.90
3752;DHT22;50827;47.014;7.652;2022-08-14T02:45:26;15.40;99.90
3752;DHT22;50827;47.014;7.652;2022-08-14T02:48:10;15.40;99.90
3752;DHT22;50827;47.014;7.652;2022-08-14T02:50:57;15.40;99.90
3752;DHT22;50827;47.014;7.652;2022-08-14T02:53:27;15.40;99.90
3752;DHT22;50827;47.014;7.652;2022-08-14T02:55:56;15.40;99.90
3752;DHT22;50827;47.014;7.652;2022-08-14T02:58:46;15.50;99.90
3752;DHT22;50827;47.014;7.652;2022-08-14T03:01:15;15.50;99.90
3752;DHT22;50827;47.014;7.652;2022-08-14T03:03:43;15.60;99.90
3752;DHT22;50827;47.014;7.652;2022-08-14T03:06:11;15.60;99.90
3752;DHT22;50827;47.014;7.652;2022-08-14T03:08:46;15.60;99.90
3752;DHT22;50827;47.014;7.652;2022-08-14T03:11:14;15.40;99.90
3752;DHT22;50827;47.014;7.652;2022-08-14T03:13:44;15.40;99.90
3752;DHT22;50827;47.014;7.652;2022-08-14T03:16:16;15.40;99.90
3752;DHT22;50827;47.014;7.652;2022-08-14T03:18:53;15.40;99.90
3752;DHT22;50827;47.014;7.652;2022-08-14T03:21:25;15.40;99.90
3752;DHT22;50827;47.014;7.652;2022-08-14T03:23:53;15.50;99.90
3752;DHT22;50827;47.014;7.652;2022-08-14T03:26:48;15.40;99.90
3752;DHT22;50827;47.014;7.652;2022-08-14T03:29:25;15.50;99.90
3752;DHT22;50827;47.014;7.652;2022-08-14T03:31:55;15.30;99.90
3752;DHT22;50827;47.014;7.652;2022-08-14T03:34:22;15.30;99.90
3752;DHT22;50827;47.014;7.652;2022-08-14T03:37:08;15.20;99.90
3752;DHT22;50827;47.014;7.652;2022-08-14T03:39:58;15.20;99.90
3752;DHT22;50827;47.014;7.652;2022-08-14T03:42:26;15.20;99.90
3752;DHT22;50827;47.014;7.652;2022-08-14T03:45:03;15.20;99.90
3752;DHT22;50827;47.014;7.652;2022-08-14T03:47:51;15.10;99.90
3752;DHT22;50827;47.014;7.652;2022-08-14T03:50:27;15.10;99.90
3752;DHT22;50827;47.014;7.652;2022-08-14T03:53:01;15.10;99.90
3752;DHT22;50827;47.014;7.652;2022-08-14T03:55:29;15.00;99.90
3752;DHT22;50827;47.014;7.652;2022-08-14T03:57:57;15.00;99.90
3752;DHT22;50827;47.014;7.652;2022-08-14T04:00:26;15.00;99.90
3752;DHT22;50827;47.014;7.652;2022-08-14T04:03:11;15.00;99.90
3752;DHT22;50827;47.014;7.652;2022-08-14T04:05:49;14.80;99.90
3752;DHT22;50827;47.014;7.652;2022-08-14T04:08:16;14.70;99.90
3752;DHT22;50827;47.014;7.652;2022-08-14T04:10:56;14.70;99.90
3752;DHT22;50827;47.014;7.652;2022-08-14T04:13:24;14.70;99.90
3752;DHT22;50827;47.014;7.652;2022-08-14T04:15:57;14.70;99.90
3752;DHT22;50827;47.014;7.652;2022-08-14T04:18:30;14.70;99.90
3752;DHT22;50827;47.014;7.652;2022-08-14T04:20:59;14.70;99.90
3752;DHT22;50827;47.014;7.652;2022-08-14T04:23:26;14.70;99.90
3752;DHT22;50827;47.014;7.652;2022-08-14T04:25:57;14.80;99.90
3752;DHT22;50827;47.014;7.652;2022-08-14T04:28:24;14.80;99.90
3752;DHT22;50827;47.014;7.652;2022-08-14T04:31:12;14.70;99.90
3752;DHT22;50827;47.014;7.652;2022-08-14T04:33:41;14.70;99.90
3752;DHT22;50827;47.014;7.652;2022-08-14T04:36:09;14.70;99.90
3752;DHT22;50827;47.014;7.652;2022-08-14T04:38:43;14.70;99.90
3752;DHT22;50827;47.014;7.652;2022-08-14T04:41:28;14.70;99.90
3752;DHT22;50827;47.014;7.652;2022-08-14T04:44:16;14.60;99.90
3752;DHT22;50827;47.014;7.652;2022-08-14T04:47:01;14.70;99.90
3752;DHT22;50827;47.014;7.652;2022-08-14T04:49:49;14.70;99.90
3752;DHT22;50827;47.014;7.652;2022-08-14T04:52:23;14.60;99.90
3752;DHT22;50827;47.014;7.652;2022-08-14T04:54:51;14.50;99.90
3752;DHT22;50827;47.014;7.652;2022-08-14T04:57:20;14.40;99.90
3752;DHT22;50827;47.014;7.652;2022-08-14T04:59:48;14.50;99.90
3752;DHT22;50827;47.014;7.652;2022-08-14T05:02:16;14.60;99.90
3752;DHT22;50827;47.014;7.652;2022-08-14T05:04:43;14.60;99.90
3752;DHT22;50827;47.014;7.652;2022-08-14T05:07:24;14.60;99.90
3752;DHT22;50827;47.014;7.652;2022-08-14T05:10:11;14.70;99.90
3752;DHT22;50827;47.014;7.652;2022-08-14T05:12:47;14.60;99.90
3752;DHT22;50827;47.014;7.652;2022-08-14T05:15:35;14.50;99.90
3752;DHT22;50827;47.014;7.652;2022-08-14T05:18:14;14.60;99.90
3752;DHT22;50827;47.014;7.652;2022-08-14T05:21:03;14.60;99.90
3752;DHT22;50827;47.014;7.652;2022-08-14T05:23:50;14.70;99.90
3752;DHT22;50827;47.014;7.652;2022-08-14T05:26:19;14.80;99.90
3752;DHT22;50827;47.014;7.652;2022-08-14T05:28:47;15.00;99.90
3752;DHT22;50827;47.014;7.652;2022-08-14T05:31:15;15.20;99.90
3752;DHT22;50827;47.014;7.652;2022-08-14T05:33:47;15.20;99.90
3752;DHT22;50827;47.014;7.652;2022-08-14T05:36:22;15.30;99.90
3752;DHT22;50827;47.014;7.652;2022-08-14T05:38:51;15.40;99.90
3752;DHT22;50827;47.014;7.652;2022-08-14T05:41:19;15.50;99.90
3752;DHT22;50827;47.014;7.652;2022-08-14T05:43:48;15.60;99.90
3752;DHT22;50827;47.014;7.652;2022-08-14T05:46:18;15.60;99.90
3752;DHT22;50827;47.014;7.652;2022-08-14T05:48:49;15.60;99.90
3752;DHT22;50827;47.014;7.652;2022-08-14T05:51:17;15.60;99.90
3752;DHT22;50827;47.014;7.652;2022-08-14T05:53:44;15.70;99.90
3752;DHT22;50827;47.014;7.652;2022-08-14T05:56:31;15.70;99.90
3752;DHT22;50827;47.014;7.652;2022-08-14T05:58:57;15.80;99.90
3752;DHT22;50827;47.014;7.652;2022-08-14T06:01:26;15.90;99.90
3752;DHT22;50827;47.014;7.652;2022-08-14T06:03:57;16.00;99.90
3752;DHT22;50827;47.014;7.652;2022-08-14T06:06:30;16.00;99.90
3752;DHT22;50827;47.014;7.652;2022-08-14T06:09:03;16.10;99.90
3752;DHT22;50827;47.014;7.652;2022-08-14T06:11:30;16.20;99.90
3752;DHT22;50827;47.014;7.652;2022-08-14T06:13:57;16.30;99.90
3752;DHT22;50827;47.014;7.652;2022-08-14T06:16:24;16.30;99.90
3752;DHT22;50827;47.014;7.652;2022-08-14T06:18:51;16.40;99.90
3752;DHT22;50827;47.014;7.652;2022-08-14T06:21:20;16.40;99.90
3752;DHT22;50827;47.014;7.652;2022-08-14T06:23:48;16.50;99.90
3752;DHT22;50827;47.014;7.652;2022-08-14T06:26:15;16.60;99.90
3752;DHT22;50827;47.014;7.652;2022-08-14T06:28:48;16.70;99.90
3752;DHT22;50827;47.014;7.652;2022-08-14T06:31:18;16.80;99.90
3752;DHT22;50827;47.014;7.652;2022-08-14T06:33:46;16.90;99.90
3752;DHT22;50827;47.014;7.652;2022-08-14T06:36:32;16.90;99.90
3752;DHT22;50827;47.014;7.652;2022-08-14T06:39:05;17.00;99.90
3752;DHT22;50827;47.014;7.652;2022-08-14T06:41:36;17.10;99.90
3752;DHT22;50827;47.014;7.652;2022-08-14T06:44:23;17.20;99.90
3752;DHT22;50827;47.014;7.652;2022-08-14T06:47:01;17.30;99.90
3752;DHT22;50827;47.014;7.652;2022-08-14T06:49:29;17.40;99.90
3752;DHT22;50827;47.014;7.652;2022-08-14T06:52:10;17.40;99.90
3752;DHT22;50827;47.014;7.652;2022-08-14T06:54:41;17.50;99.90
3752;DHT22;50827;47.014;7.652;2022-08-14T06:57:08;17.60;99.90
3752;DHT22;50827;47.014;7.652;2022-08-14T06:59:35;17.70;99.90
3752;DHT22;50827;47.014;7.652;2022-08-14T07:02:02;17.80;99.90
3752;DHT22;50827;47.014;7.652;2022-08-14T07:04:49;17.90;99.90
3752;DHT22;50827;47.014;7.652;2022-08-14T07:07:38;18.00;99.90
3752;DHT22;50827;47.014;7.652;2022-08-14T07:10:06;18.10;99.90
3752;DHT22;50827;47.014;7.652;2022-08-14T07:12:43;18.10;99.90
3752;DHT22;50827;47.014;7.652;2022-08-14T07:15:28;18.20;99.90
3752;DHT22;50827;47.014;7.652;2022-08-14T07:17:54;18.20;99.90
3752;DHT22;50827;47.014;7.652;2022-08-14T07:20:22;18.30;99.90
3752;DHT22;50827;47.014;7.652;2022-08-14T07:23:03;18.40;99.90
3752;DHT22;50827;47.014;7.652;2022-08-14T07:25:46;18.40;99.90
3752;DHT22;50827;47.014;7.652;2022-08-14T07:28:20;18.50;99.90
3752;DHT22;50827;47.014;7.652;2022-08-14T07:30:52;18.60;99.90
3752;DHT22;50827;47.014;7.652;2022-08-14T07:33:43;18.70;99.90
3752;DHT22;50827;47.014;7.652;2022-08-14T07:36:17;18.80;99.90
3752;DHT22;50827;47.014;7.652;2022-08-14T07:39:00;18.90;99.90
3752;DHT22;50827;47.014;7.652;2022-08-14T07:41:37;19.10;99.90
3752;DHT22;50827;47.014;7.652;2022-08-14T07:44:04;19.10;99.90
3752;DHT22;50827;47.014;7.652;2022-08-14T07:46:50;19.30;99.90
3752;DHT22;50827;47.014;7.652;2022-08-14T07:49:18;19.40;99.90
3752;DHT22;50827;47.014;7.652;2022-08-14T07:51:49;19.60;99.90
3752;DHT22;50827;47.014;7.652;2022-08-14T07:54:17;19.60;99.90
3752;DHT22;50827;47.014;7.652;2022-08-14T07:56:57;19.70;99.90
3752;DHT22;50827;47.014;7.652;2022-08-14T07:59:27;19.90;99.90
3752;DHT22;50827;47.014;7.652;2022-08-14T08:02:10;20.00;99.90
3752;DHT22;50827;47.014;7.652;2022-08-14T08:04:52;20.00;99.90
3752;DHT22;50827;47.014;7.652;2022-08-14T08:07:26;20.10;99.90
3752;DHT22;50827;47.014;7.652;2022-08-14T08:09:58;20.20;99.90
3752;DHT22;50827;47.014;7.652;2022-08-14T08:12:25;20.30;99.90
3752;DHT22;50827;47.014;7.652;2022-08-14T08:14:56;20.30;99.90
3752;DHT22;50827;47.014;7.652;2022-08-14T08:17:33;20.40;99.90
3752;DHT22;50827;47.014;7.652;2022-08-14T08:20:15;20.50;99.90
3752;DHT22;50827;47.014;7.652;2022-08-14T08:22:49;20.50;99.90
3752;DHT22;50827;47.014;7.652;2022-08-14T08:25:27;20.60;99.90
3752;DHT22;50827;47.014;7.652;2022-08-14T08:28:19;20.60;99.90
3752;DHT22;50827;47.014;7.652;2022-08-14T08:30:57;20.70;99.90
3752;DHT22;50827;47.014;7.652;2022-08-14T08:33:31;20.80;99.90
3752;DHT22;50827;47.014;7.652;2022-08-14T08:36:05;20.90;99.90
3752;DHT22;50827;47.014;7.652;2022-08-14T08:38:38;20.90;99.90
3752;DHT22;50827;47.014;7.652;2022-08-14T08:41:25;21.00;99.90
3752;DHT22;50827;47.014;7.652;2022-08-14T08:44:03;21.10;99.90
3752;DHT22;50827;47.014;7.652;2022-08-14T08:46:31;21.20;99.90
3752;DHT22;50827;47.014;7.652;2022-08-14T08:49:01;21.20;99.90
3752;DHT22;50827;47.014;7.652;2022-08-14T08:51:36;21.30;99.90
3752;DHT22;50827;47.014;7.652;2022-08-14T08:54:13;21.40;99.90
3752;DHT22;50827;47.014;7.652;2022-08-14T08:56:46;21.40;99.90
3752;DHT22;50827;47.014;7.652;2022-08-14T08:59:19;21.50;99.90
3752;DHT22;50827;47.014;7.652;2022-08-14T09:01:59;21.50;99.90
3752;DHT22;50827;47.014;7.652;2022-08-14T09:04:36;21.60;99.90
3752;DHT22;50827;47.014;7.652;2022-08-14T09:07:28;21.70;99.90
3752;DHT22;50827;47.014;7.652;2022-08-14T09:09:57;21.80;99.90
3752;DHT22;50827;47.014;7.652;2022-08-14T09:12:29;21.80;99.90
3752;DHT22;50827;47.014;7.652;2022-08-14T09:15:03;21.80;99.90
3752;DHT22;50827;47.014;7.652;2022-08-14T09:17:38;21.90;99.90
3752;DHT22;50827;47.014;7.652;2022-08-14T09:20:08;22.00;99.90
3752;DHT22;50827;47.014;7.652;2022-08-14T09:22:41;22.00;99.90
3752;DHT22;50827;47.014;7.652;2022-08-14T09:25:15;22.10;99.90
3752;DHT22;50827;47.014;7.652;2022-08-14T09:27:45;22.20;99.90
3752;DHT22;50827;47.014;7.652;2022-08-14T09:30:12;22.30;99.90
3752;DHT22;50827;47.014;7.652;2022-08-14T09:41:36;22.50;99.90
3752;DHT22;50827;47.014;7.652;2022-08-14T09:47:15;22.60;99.90
3752;DHT22;50827;47.014;7.652;2022-08-14T09:49:42;22.70;99.90
3752;DHT22;50827;47.014;7.652;2022-08-14T09:52:19;22.70;99.90
3752;DHT22;50827;47.014;7.652;2022-08-14T09:55:16;22.80;99.90
3752;DHT22;50827;47.014;7.652;2022-08-14T09:57:47;22.90;99.90
3752;DHT22;50827;47.014;7.652;2022-08-14T10:00:14;23.00;99.90
3752;DHT22;50827;47.014;7.652;2022-08-14T10:02:56;23.10;99.90
3752;DHT22;50827;47.014;7.652;2022-08-14T10:05:34;23.20;99.90
3752;DHT22;50827;47.014;7.652;2022-08-14T10:08:18;23.20;99.90
3752;DHT22;50827;47.014;7.652;2022-08-14T10:10:52;23.30;99.90
3752;DHT22;50827;47.014;7.652;2022-08-14T10:13:28;23.30;99.90
3752;DHT22;50827;47.014;7.652;2022-08-14T10:16:15;23.40;99.90
3752;DHT22;50827;47.014;7.652;2022-08-14T10:19:06;23.40;99.90
3752;DHT22;50827;47.014;7.652;2022-08-14T10:21:37;23.40;99.90
3752;DHT22;50827;47.014;7.652;2022-08-14T10:24:32;23.40;99.90
3752;DHT22;50827;47.014;7.652;2022-08-14T10:27:15;23.50;99.90
3752;DHT22;50827;47.014;7.652;2022-08-14T10:29:46;23.50;99.90
3752;DHT22;50827;47.014;7.652;2022-08-14T10:32:14;23.60;99.90
3752;DHT22;50827;47.014;7.652;2022-08-14T10:35:06;23.60;99.90
3752;DHT22;50827;47.014;7.652;2022-08-14T10:37:50;23.70;99.90
3752;DHT22;50827;47.014;7.652;2022-08-14T10:40:31;23.70;99.90
3752;DHT22;50827;47.014;7.652;2022-08-14T10:43:23;23.70;99.90
3752;DHT22;50827;47.014;7.652;2022-08-14T10:45:58;23.70;99.90
3752;DHT22;50827;47.014;7.652;2022-08-14T10:49:00;23.70;99.90
3752;DHT22;50827;47.014;7.652;2022-08-14T10:51:32;23.70;99.90
3752;DHT22;50827;47.014;7.652;2022-08-14T10:54:07;23.70;99.90
3752;DHT22;50827;47.014;7.652;2022-08-14T10:57:09;23.70;99.90
3752;DHT22;50827;47.014;7.652;2022-08-14T10:59:51;23.80;99.90
3752;DHT22;50827;47.014;7.652;2022-08-14T11:02:24;23.80;99.90
3752;DHT22;50827;47.014;7.652;2022-08-14T11:05:13;23.80;99.90
3752;DHT22;50827;47.014;7.652;2022-08-14T11:10:52;23.80;99.90
3752;DHT22;50827;47.014;7.652;2022-08-14T11:13:25;23.80;99.90
3752;DHT22;50827;47.014;7.652;2022-08-14T11:15:58;23.70;99.90
3752;DHT22;50827;47.014;7.652;2022-08-14T11:18:29;23.80;99.90
3752;DHT22;50827;47.014;7.652;2022-08-14T11:21:06;23.80;99.90
3752;DHT22;50827;47.014;7.652;2022-08-14T11:23:38;23.80;99.90
3752;DHT22;50827;47.014;7.652;2022-08-14T11:26:10;23.80;99.90
3752;DHT22;50827;47.014;7.652;2022-08-14T11:28:39;23.70;99.90
3752;DHT22;50827;47.014;7.652;2022-08-14T11:31:17;23.80;99.90
3752;DHT22;50827;47.014;7.652;2022-08-14T11:33:52;23.80;99.90
3752;DHT22;50827;47.014;7.652;2022-08-14T11:36:22;23.80;99.90
3752;DHT22;50827;47.014;7.652;2022-08-14T11:39:21;23.90;99.90
3752;DHT22;50827;47.014;7.652;2022-08-14T11:42:04;24.00;99.90
3752;DHT22;50827;47.014;7.652;2022-08-14T11:45:04;24.00;99.90
3752;DHT22;50827;47.014;7.652;2022-08-14T11:47:44;24.10;99.90
3752;DHT22;50827;47.014;7.652;2022-08-14T11:50:33;24.00;99.90
3752;DHT22;50827;47.014;7.652;2022-08-14T11:53:05;24.10;99.90
3752;DHT22;50827;47.014;7.652;2022-08-14T11:55:36;24.20;99.90
3752;DHT22;50827;47.014;7.652;2022-08-14T11:58:09;24.20;99.90
3752;DHT22;50827;47.014;7.652;2022-08-14T12:00:48;24.20;99.90
3752;DHT22;50827;47.014;7.652;2022-08-14T12:03:18;24.30;99.90
3752;DHT22;50827;47.014;7.652;2022-08-14T12:06:11;24.30;99.90
3752;DHT22;50827;47.014;7.652;2022-08-14T12:08:58;24.30;99.90
3752;DHT22;50827;47.014;7.652;2022-08-14T12:11:37;24.40;99.90
3752;DHT22;50827;47.014;7.652;2022-08-14T12:14:10;24.50;99.90
3752;DHT22;50827;47.014;7.652;2022-08-14T12:17:03;24.60;99.90
3752;DHT22;50827;47.014;7.652;2022-08-14T12:20:00;24.70;99.90
3752;DHT22;50827;47.014;7.652;2022-08-14T12:22:37;24.70;99.90
3752;DHT22;50827;47.014;7.652;2022-08-14T12:25:21;24.70;99.90
3752;DHT22;50827;47.014;7.652;2022-08-14T12:27:52;24.80;99.90
3752;DHT22;50827;47.014;7.652;2022-08-14T12:30:27;24.80;99.90
3752;DHT22;50827;47.014;7.652;2022-08-14T12:33:08;24.80;99.90
3752;DHT22;50827;47.014;7.652;2022-08-14T12:35:49;24.80;99.90
3752;DHT22;50827;47.014;7.652;2022-08-14T12:38:51;24.80;99.90
3752;DHT22;50827;47.014;7.652;2022-08-14T12:41:22;24.80;99.90
3752;DHT22;50827;47.014;7.652;2022-08-14T12:43:58;24.80;99.90
3752;DHT22;50827;47.014;7.652;2022-08-14T12:46:29;24.80;99.90
3752;DHT22;50827;47.014;7.652;2022-08-14T12:48:59;24.80;99.90
3752;DHT22;50827;47.014;7.652;2022-08-14T12:51:28;24.80;99.90
3752;DHT22;50827;47.014;7.652;2022-08-14T12:53:57;25.00;99.90
3752;DHT22;50827;47.014;7.652;2022-08-14T12:56:25;25.00;99.90
3752;DHT22;50827;47.014;7.652;2022-08-14T12:59:00;25.00;99.90
3752;DHT22;50827;47.014;7.652;2022-08-14T13:01:29;25.00;99.90
3752;DHT22;50827;47.014;7.652;2022-08-14T13:04:16;24.90;99.90
3752;DHT22;50827;47.014;7.652;2022-08-14T13:06:46;25.00;99.90
3752;DHT22;50827;47.014;7.652;2022-08-14T13:09:18;24.90;99.90
3752;DHT22;50827;47.014;7.652;2022-08-14T13:11:50;24.90;99.90
3752;DHT22;50827;47.014;7.652;2022-08-14T13:14:37;24.90;99.90
3752;DHT22;50827;47.014;7.652;2022-08-14T13:17:06;25.00;99.90
3752;DHT22;50827;47.014;7.652;2022-08-14T13:19:38;25.00;99.90
3752;DHT22;50827;47.014;7.652;2022-08-14T13:22:07;24.90;99.90
3752;DHT22;50827;47.014;7.652;2022-08-14T13:24:54;24.90;99.90
3752;DHT22;50827;47.014;7.652;2022-08-14T13:27:22;24.90;99.90
3752;DHT22;50827;47.014;7.652;2022-08-14T13:29:56;24.90;99.90
3752;DHT22;50827;47.014;7.652;2022-08-14T13:32:24;24.90;99.90
3752;DHT22;50827;47.014;7.652;2022-08-14T13:34:51;24.90;99.90
3752;DHT22;50827;47.014;7.652;2022-08-14T13:37:18;25.00;99.90
3752;DHT22;50827;47.014;7.652;2022-08-14T13:39:46;25.10;99.90
3752;DHT22;50827;47.014;7.652;2022-08-14T13:42:24;25.20;99.90
3752;DHT22;50827;47.014;7.652;2022-08-14T13:44:58;25.20;99.90
3752;DHT22;50827;47.014;7.652;2022-08-14T13:47:29;25.20;99.90
3752;DHT22;50827;47.014;7.652;2022-08-14T13:49:58;25.30;99.90
3752;DHT22;50827;47.014;7.652;2022-08-14T13:52:30;25.40;99.90
3752;DHT22;50827;47.014;7.652;2022-08-14T13:55:26;25.50;99.90
3752;DHT22;50827;47.014;7.652;2022-08-14T13:57:59;25.60;99.90
3752;DHT22;50827;47.014;7.652;2022-08-14T14:00:35;25.60;99.90
3752;DHT22;50827;47.014;7.652;2022-08-14T14:03:20;25.70;99.90
3752;DHT22;50827;47.014;7.652;2022-08-14T14:05:52;25.80;99.90
3752;DHT22;50827;47.014;7.652;2022-08-14T14:08:22;25.80;99.90
3752;DHT22;50827;47.014;7.652;2022-08-14T14:11:09;25.80;99.90
3752;DHT22;50827;47.014;7.652;2022-08-14T14:13:37;25.70;99.90
3752;DHT22;50827;47.014;7.652;2022-08-14T14:16:11;25.70;99.90
3752;DHT22;50827;47.014;7.652;2022-08-14T14:18:49;25.70;99.90
3752;DHT22;50827;47.014;7.652;2022-08-14T14:21:18;25.70;99.90
3752;DHT22;50827;47.014;7.652;2022-08-14T14:23:47;25.70;99.90
3752;DHT22;50827;47.014;7.652;2022-08-14T14:26:16;25.70;99.90
3752;DHT22;50827;47.014;7.652;2022-08-14T14:28:52;25.60;99.90
3752;DHT22;50827;47.014;7.652;2022-08-14T14:31:24;25.60;99.90
3752;DHT22;50827;47.014;7.652;2022-08-14T14:33:59;25.60;99.90
3752;DHT22;50827;47.014;7.652;2022-08-14T14:36:28;25.60;99.90
3752;DHT22;50827;47.014;7.652;2022-08-14T14:38:58;25.60;99.90
3752;DHT22;50827;47.014;7.652;2022-08-14T14:41:32;25.60;99.90
3752;DHT22;50827;47.014;7.652;2022-08-14T14:44:06;25.60;99.90
3752;DHT22;50827;47.014;7.652;2022-08-14T14:46:36;25.50;99.90
3752;DHT22;50827;47.014;7.652;2022-08-14T14:49:08;25.60;99.90
3752;DHT22;50827;47.014;7.652;2022-08-14T14:51:43;25.50;99.90
3752;DHT22;50827;47.014;7.652;2022-08-14T14:54:19;25.50;99.90
3752;DHT22;50827;47.014;7.652;2022-08-14T14:56:58;25.50;99.90
3752;DHT22;50827;47.014;7.652;2022-08-14T14:59:30;25.40;99.90
3752;DHT22;50827;47.014;7.652;2022-08-14T15:02:02;25.50;99.90
3752;DHT22;50827;47.014;7.652;2022-08-14T15:04:37;25.40;99.90
3752;DHT22;50827;47.014;7.652;2022-08-14T15:07:08;25.40;99.90
3752;DHT22;50827;47.014;7.652;2022-08-14T15:09:38;25.40;99.90
3752;DHT22;50827;47.014;7.652;2022-08-14T15:12:06;25.40;99.90
3752;DHT22;50827;47.014;7.652;2022-08-14T15:14:53;25.30;99.90
3752;DHT22;50827;47.014;7.652;2022-08-14T15:17:33;25.30;99.90
3752;DHT22;50827;47.014;7.652;2022-08-14T15:20:12;25.30;99.90
3752;DHT22;50827;47.014;7.652;2022-08-14T15:22:51;25.30;99.90
3752;DHT22;50827;47.014;7.652;2022-08-14T15:25:20;25.30;99.90
3752;DHT22;50827;47.014;7.652;2022-08-14T15:27:48;25.30;99.90
3752;DHT22;50827;47.014;7.652;2022-08-14T15:30:20;25.40;99.90
3752;DHT22;50827;47.014;7.652;2022-08-14T15:32:57;25.60;99.90
3752;DHT22;50827;47.014;7.652;2022-08-14T15:35:24;25.60;99.90
3752;DHT22;50827;47.014;7.652;2022-08-14T15:37:53;25.70;99.90
3752;DHT22;50827;47.014;7.652;2022-08-14T15:40:21;25.80;99.90
3752;DHT22;50827;47.014;7.652;2022-08-14T15:42:49;25.90;99.90
3752;DHT22;50827;47.014;7.652;2022-08-14T15:45:17;25.90;99.90
3752;DHT22;50827;47.014;7.652;2022-08-14T15:47:44;25.90;99.90
3752;DHT22;50827;47.014;7.652;2022-08-14T15:50:11;25.90;99.90
3752;DHT22;50827;47.014;7.652;2022-08-14T15:52:39;25.80;99.90
3752;DHT22;50827;47.014;7.652;2022-08-14T15:55:13;25.80;99.90
3752;DHT22;50827;47.014;7.652;2022-08-14T15:57:42;25.90;99.90
3752;DHT22;50827;47.014;7.652;2022-08-14T16:00:29;25.80;99.90
3752;DHT22;50827;47.014;7.652;2022-08-14T16:03:18;25.80;99.90
3752;DHT22;50827;47.014;7.652;2022-08-14T16:06:13;25.70;99.90
3752;DHT22;50827;47.014;7.652;2022-08-14T16:08:49;25.80;99.90
3752;DHT22;50827;47.014;7.652;2022-08-14T16:11:27;25.80;99.90
3752;DHT22;50827;47.014;7.652;2022-08-14T16:13:59;25.80;99.90
3752;DHT22;50827;47.014;7.652;2022-08-14T16:16:27;25.90;99.90
3752;DHT22;50827;47.014;7.652;2022-08-14T16:19:19;25.80;99.90
3752;DHT22;50827;47.014;7.652;2022-08-14T16:21:49;25.70;99.90
3752;DHT22;50827;47.014;7.652;2022-08-14T16:24:42;25.70;99.90
3752;DHT22;50827;47.014;7.652;2022-08-14T16:27:30;25.70;99.90
3752;DHT22;50827;47.014;7.652;2022-08-14T16:30:12;25.70;99.90
3752;DHT22;50827;47.014;7.652;2022-08-14T16:32:54;25.70;99.90
3752;DHT22;50827;47.014;7.652;2022-08-14T16:35:27;25.60;99.90
3752;DHT22;50827;47.014;7.652;2022-08-14T16:38:16;25.60;99.90
3752;DHT22;50827;47.014;7.652;2022-08-14T16:41:04;25.50;99.90
3752;DHT22;50827;47.014;7.652;2022-08-14T16:43:49;25.50;99.90
3752;DHT22;50827;47.014;7.652;2022-08-14T16:46:19;25.50;99.90
3752;DHT22;50827;47.014;7.652;2022-08-14T16:48:49;25.50;99.90
3752;DHT22;50827;47.014;7.652;2022-08-14T16:51:25;25.50;99.90
3752;DHT22;50827;47.014;7.652;2022-08-14T16:53:57;25.50;99.90